createdAt,value
2022-12-03T00:00:59.606Z,8.40
2022-12-03T00:02:01.755Z,9.79
2022-12-03T00:03:06.353Z,10.00
2022-12-03T00:04:08.606Z,10.16
2022-12-03T00:05:12.740Z,10.59
2022-12-03T00:06:14.861Z,8.73
2022-12-03T00:07:17.899Z,8.27
2022-12-03T00:08:19.961Z,8.65
2022-12-03T00:09:23.119Z,9.14
2022-12-03T00:10:25.438Z,8.76
2022-12-03T00:11:28.571Z,8.68
2022-12-03T00:12:30.730Z,9.00
2022-12-03T00:13:33.837Z,8.13
2022-12-03T00:14:38.850Z,7.89
2022-12-03T00:15:46.162Z,9.09
2022-12-03T00:16:48.380Z,9.52
2022-12-03T00:17:51.477Z,8.70
2022-12-03T00:18:54.981Z,8.83
2022-12-03T00:19:58.245Z,9.19
2022-12-03T00:21:00.323Z,8.13
2022-12-03T00:22:03.451Z,8.60
2022-12-03T00:23:05.561Z,9.04
2022-12-03T00:24:09.543Z,7.60
2022-12-03T00:25:11.633Z,8.95
2022-12-03T00:26:14.813Z,8.25
2022-12-03T00:27:16.913Z,9.14
2022-12-03T00:28:19.979Z,8.73
2022-12-03T00:29:22.061Z,8.28
2022-12-03T00:30:25.317Z,8.07
2022-12-03T00:31:27.549Z,6.99
2022-12-03T00:32:30.747Z,5.74
2022-12-03T00:33:32.857Z,6.95
2022-12-03T00:34:37.362Z,7.85
2022-12-03T00:35:39.453Z,8.02
2022-12-03T00:36:42.607Z,7.44
2022-12-03T00:37:44.715Z,8.04
2022-12-03T00:38:47.977Z,7.25
2022-12-03T00:39:50.395Z,7.84
2022-12-03T00:40:53.551Z,6.66
2022-12-03T00:41:55.643Z,7.81
2022-12-03T00:42:58.807Z,7.90
2022-12-03T00:44:00.938Z,8.01
2022-12-03T00:45:04.248Z,6.92
2022-12-03T00:46:06.650Z,6.43
2022-12-03T00:47:10.092Z,8.01
2022-12-03T00:48:12.246Z,7.66
2022-12-03T00:49:15.418Z,6.46
2022-12-03T00:50:18.914Z,6.26
2022-12-03T00:51:22.094Z,6.47
2022-12-03T00:52:24.301Z,5.69
2022-12-03T00:53:27.720Z,7.17
2022-12-03T00:54:32.006Z,7.68
2022-12-03T00:55:35.449Z,5.97
2022-12-03T00:56:37.528Z,6.71
2022-12-03T00:57:40.623Z,7.21
2022-12-03T00:58:42.739Z,7.98
2022-12-03T00:59:45.856Z,6.39
2022-12-03T01:00:47.953Z,8.16
2022-12-03T01:01:51.043Z,8.41
2022-12-03T01:02:53.556Z,8.60
2022-12-03T01:03:56.632Z,8.21
2022-12-03T01:04:58.806Z,7.94
2022-12-03T01:06:03.330Z,6.76
2022-12-03T01:07:05.472Z,5.73
2022-12-03T01:08:08.632Z,6.76
2022-12-03T01:09:10.836Z,6.27
2022-12-03T01:10:14.683Z,6.45
2022-12-03T01:11:35.182Z,7.91
2022-12-03T01:12:38.330Z,6.95
2022-12-03T01:13:40.414Z,7.23
2022-12-03T01:14:43.559Z,7.38
2022-12-03T01:15:45.796Z,8.55
2022-12-03T01:16:49.878Z,7.60
2022-12-03T01:17:54.179Z,6.62
2022-12-03T01:18:57.278Z,6.53
2022-12-03T01:19:59.386Z,6.46
2022-12-03T01:21:03.837Z,7.24
2022-12-03T01:22:05.939Z,6.42
2022-12-03T01:23:09.036Z,6.37
2022-12-03T01:24:11.821Z,7.32
2022-12-03T01:25:14.885Z,7.52
2022-12-03T01:26:17.043Z,7.75
2022-12-03T01:27:20.199Z,7.68
2022-12-03T01:28:22.326Z,7.57
2022-12-03T01:29:25.911Z,8.04
2022-12-03T01:30:28.046Z,8.73
2022-12-03T01:31:48.686Z,8.04
2022-12-03T01:32:51.814Z,8.02
2022-12-03T01:33:54.190Z,6.85
2022-12-03T01:34:57.594Z,8.32
2022-12-03T01:35:59.701Z,7.81
2022-12-03T01:37:04.428Z,7.80
2022-12-03T01:38:06.550Z,7.07
2022-12-03T01:39:09.824Z,7.37
2022-12-03T01:40:19.852Z,7.31
2022-12-03T01:41:25.613Z,8.24
2022-12-03T01:42:31.384Z,8.36
2022-12-03T01:43:34.585Z,7.90
2022-12-03T01:44:39.711Z,8.21
2022-12-03T01:45:42.928Z,7.62
2022-12-03T01:46:46.795Z,7.32
2022-12-03T01:47:50.140Z,8.12
2022-12-03T01:48:55.688Z,7.76
2022-12-03T01:50:03.841Z,7.81
2022-12-03T01:51:07.137Z,7.84
2022-12-03T01:52:14.633Z,7.94
2022-12-03T01:53:19.150Z,8.34
2022-12-03T01:54:27.277Z,7.76
2022-12-03T01:55:30.309Z,8.80
2022-12-03T01:56:33.457Z,9.05
2022-12-03T01:57:42.629Z,8.21
2022-12-03T01:58:46.881Z,8.56
2022-12-03T01:59:51.339Z,8.79
2022-12-03T02:00:53.514Z,8.61
2022-12-03T02:01:56.627Z,8.60
2022-12-03T02:03:02.916Z,8.89
2022-12-03T02:04:05.322Z,8.81
2022-12-03T02:05:17.897Z,7.98
2022-12-03T02:06:22.952Z,8.03
2022-12-03T02:07:30.721Z,7.11
2022-12-03T02:08:35.481Z,6.91
2022-12-03T02:09:38.556Z,7.42
2022-12-03T02:10:40.721Z,6.83
2022-12-03T02:11:47.784Z,8.12
2022-12-03T02:12:56.381Z,9.23
2022-12-03T02:14:05.025Z,8.15
2022-12-03T02:15:10.289Z,7.33
2022-12-03T02:16:12.593Z,6.44
2022-12-03T02:17:16.108Z,7.47
2022-12-03T02:18:19.138Z,7.43
2022-12-03T02:19:27.715Z,8.18
2022-12-03T02:20:35.958Z,7.32
2022-12-03T02:21:50.373Z,6.84
2022-12-03T02:23:03.413Z,7.58
2022-12-03T02:24:18.501Z,7.40
2022-12-03T02:25:27.077Z,7.00
2022-12-03T02:26:29.879Z,7.45
2022-12-03T02:27:33.137Z,7.65
2022-12-03T02:28:35.325Z,8.00
2022-12-03T02:29:38.657Z,7.12
2022-12-03T02:30:40.766Z,8.17
2022-12-03T02:31:44.852Z,7.85
2022-12-03T02:32:48.035Z,6.81
2022-12-03T02:33:51.595Z,6.47
2022-12-03T02:34:53.968Z,7.22
2022-12-03T02:36:03.114Z,5.90
2022-12-03T02:37:10.319Z,6.85
2022-12-03T02:38:17.973Z,8.52
2022-12-03T02:39:20.156Z,8.49
2022-12-03T02:40:28.324Z,7.84
2022-12-03T02:41:49.371Z,8.04
2022-12-03T02:42:56.773Z,7.79
2022-12-03T02:43:59.957Z,7.95
2022-12-03T02:45:07.530Z,7.56
2022-12-03T02:46:10.715Z,7.98
2022-12-03T02:47:13.122Z,7.72
2022-12-03T02:48:20.777Z,6.97
2022-12-03T02:49:22.917Z,8.40
2022-12-03T02:50:32.091Z,8.48
2022-12-03T02:51:35.532Z,7.39
2022-12-03T02:52:40.105Z,6.83
2022-12-03T02:53:46.987Z,7.54
2022-12-03T02:54:51.003Z,6.76
2022-12-03T02:55:58.749Z,7.09
2022-12-03T02:57:02.322Z,7.78
2022-12-03T02:58:05.875Z,9.05
2022-12-03T02:59:09.077Z,7.60
2022-12-03T03:00:12.562Z,7.93
2022-12-03T03:01:16.952Z,7.94
2022-12-03T03:02:19.896Z,7.52
2022-12-03T03:03:24.799Z,7.95
2022-12-03T03:04:27.357Z,6.88
2022-12-03T03:05:30.897Z,6.51
2022-12-03T03:06:33.597Z,7.48
2022-12-03T03:07:37.927Z,7.89
2022-12-03T03:08:41.495Z,8.98
2022-12-03T03:09:44.904Z,8.18
2022-12-03T03:10:48.427Z,8.36
2022-12-03T03:11:52.954Z,8.80
2022-12-03T03:12:56.731Z,7.36
2022-12-03T03:14:01.825Z,8.19
2022-12-03T03:15:05.283Z,9.52
2022-12-03T03:16:10.150Z,8.74
2022-12-03T03:17:12.610Z,8.70
2022-12-03T03:18:17.673Z,9.94
2022-12-03T03:19:19.886Z,8.24
2022-12-03T03:20:23.144Z,8.31
2022-12-03T03:21:25.283Z,8.76
2022-12-03T03:22:34.069Z,10.01
2022-12-03T03:23:36.257Z,10.50
2022-12-03T03:24:40.641Z,10.23
2022-12-03T03:25:47.063Z,9.76
2022-12-03T03:26:52.791Z,9.89
2022-12-03T03:27:54.900Z,11.10
2022-12-03T03:29:00.224Z,10.64
2022-12-03T03:30:03.420Z,10.04
2022-12-03T03:31:09.296Z,10.45
2022-12-03T03:32:11.600Z,11.09
2022-12-03T03:33:17.814Z,10.78
2022-12-03T03:34:20.464Z,10.63
2022-12-03T03:35:25.975Z,11.55
2022-12-03T03:36:28.309Z,10.45
2022-12-03T03:37:31.981Z,10.12
2022-12-03T03:38:35.608Z,11.19
2022-12-03T03:39:38.889Z,11.27
2022-12-03T03:40:41.403Z,10.51
2022-12-03T03:41:47.576Z,9.25
2022-12-03T03:42:51.410Z,9.84
2022-12-03T03:43:55.434Z,9.31
2022-12-03T03:44:59.032Z,10.91
2022-12-03T03:46:04.508Z,11.59
2022-12-03T03:47:07.227Z,9.68
2022-12-03T03:48:10.671Z,10.59
2022-12-03T03:49:13.497Z,10.79
2022-12-03T03:50:18.085Z,10.56
2022-12-03T03:51:21.038Z,10.37
2022-12-03T03:52:24.769Z,10.74
2022-12-03T03:53:27.495Z,11.45
2022-12-03T03:54:31.733Z,11.68
2022-12-03T03:55:36.062Z,11.48
2022-12-03T03:56:38.500Z,11.47
2022-12-03T03:57:41.898Z,10.83
2022-12-03T03:58:45.419Z,11.78
2022-12-03T03:59:48.724Z,10.98
2022-12-03T04:00:51.569Z,11.99
2022-12-03T04:01:54.867Z,10.67
2022-12-03T04:02:57.062Z,11.17
2022-12-03T04:04:01.189Z,11.83
2022-12-03T04:05:03.574Z,10.59
2022-12-03T04:06:07.112Z,11.90
2022-12-03T04:07:09.257Z,12.08
2022-12-03T04:08:12.495Z,12.08
2022-12-03T04:09:14.798Z,11.55
2022-12-03T04:10:35.708Z,11.43
2022-12-03T04:11:56.378Z,11.04
2022-12-03T04:12:59.578Z,10.93
2022-12-03T04:14:04.272Z,11.13
2022-12-03T04:15:08.048Z,11.22
2022-12-03T04:16:11.152Z,12.03
2022-12-03T04:17:13.416Z,12.03
2022-12-03T04:18:33.917Z,12.19
2022-12-03T04:19:37.110Z,12.34
2022-12-03T04:20:39.635Z,12.22
2022-12-03T04:21:59.314Z,12.86
2022-12-03T04:23:02.364Z,12.58
2022-12-03T04:24:06.714Z,11.99
2022-12-03T04:25:29.558Z,12.67
2022-12-03T04:26:50.108Z,11.30
2022-12-03T04:28:10.838Z,12.08
2022-12-03T04:29:15.413Z,12.09
2022-12-03T04:30:17.613Z,11.32
2022-12-03T04:31:37.323Z,11.03
2022-12-03T04:32:57.938Z,11.11
2022-12-03T04:34:21.049Z,12.08
2022-12-03T04:35:41.736Z,11.86
2022-12-03T04:36:44.945Z,13.27
2022-12-03T04:37:47.053Z,12.75
2022-12-03T04:38:50.089Z,12.63
2022-12-03T04:39:53.351Z,12.47
2022-12-03T04:41:01.362Z,12.57
2022-12-03T04:42:05.720Z,12.76
2022-12-03T04:43:07.889Z,12.35
2022-12-03T04:44:28.332Z,11.13
2022-12-03T04:45:32.854Z,11.92
2022-12-03T04:46:35.011Z,12.68
2022-12-03T04:47:39.984Z,13.06
2022-12-03T04:48:42.336Z,11.99
2022-12-03T04:49:47.423Z,11.11
2022-12-03T04:50:49.616Z,12.30
2022-12-03T04:51:52.734Z,12.32
2022-12-03T04:52:54.846Z,12.00
2022-12-03T04:53:57.939Z,12.19
2022-12-03T04:55:00.101Z,12.13
2022-12-03T04:56:03.193Z,12.97
2022-12-03T04:57:07.085Z,13.31
2022-12-03T04:58:10.868Z,14.00
2022-12-03T04:59:16.350Z,13.90
2022-12-03T05:00:20.396Z,12.61
2022-12-03T05:01:24.107Z,11.58
2022-12-03T05:02:27.372Z,12.56
2022-12-03T05:03:29.569Z,12.62
2022-12-03T05:04:32.828Z,10.98
2022-12-03T05:05:35.006Z,12.25
2022-12-03T05:06:38.191Z,13.62
2022-12-03T05:07:40.375Z,12.69
2022-12-03T05:08:43.522Z,12.23
2022-12-03T05:09:45.656Z,10.84
2022-12-03T05:10:48.722Z,13.25
2022-12-03T05:11:50.893Z,10.34
2022-12-03T05:12:54.007Z,11.66
2022-12-03T05:13:56.173Z,11.53
2022-12-03T05:14:59.265Z,11.94
2022-12-03T05:16:01.450Z,12.15
2022-12-03T05:17:05.983Z,12.13
2022-12-03T05:18:23.347Z,12.34
2022-12-03T05:19:46.434Z,12.70
2022-12-03T05:20:53.188Z,13.04
2022-12-03T05:21:55.862Z,12.89
2022-12-03T05:22:58.965Z,10.87
2022-12-03T05:24:01.896Z,11.12
2022-12-03T05:25:05.751Z,12.18
2022-12-03T05:26:08.209Z,10.73
2022-12-03T05:27:11.347Z,12.83
2022-12-03T05:28:13.492Z,14.09
2022-12-03T05:29:16.599Z,12.50
2022-12-03T05:30:18.826Z,13.18
2022-12-03T05:31:21.948Z,12.40
2022-12-03T05:32:25.456Z,11.99
2022-12-03T05:33:28.613Z,13.36
2022-12-03T05:34:31.795Z,13.79
2022-12-03T05:35:33.985Z,12.52
2022-12-03T05:36:37.085Z,14.03
2022-12-03T05:37:39.351Z,14.12
2022-12-03T05:38:42.451Z,14.12
2022-12-03T05:39:44.564Z,15.04
2022-12-03T05:40:47.682Z,14.58
2022-12-03T05:42:08.209Z,14.28
2022-12-03T05:43:10.498Z,14.84
2022-12-03T05:44:16.248Z,14.57
2022-12-03T05:45:24.457Z,14.04
2022-12-03T05:46:27.742Z,14.84
2022-12-03T05:47:31.318Z,14.21
2022-12-03T05:48:34.467Z,14.62
2022-12-03T05:49:36.597Z,14.66
2022-12-03T05:50:43.832Z,13.96
2022-12-03T05:51:46.028Z,14.52
2022-12-03T05:52:49.343Z,15.05
2022-12-03T05:53:51.402Z,13.82
2022-12-03T05:54:54.733Z,14.48
2022-12-03T05:55:57.035Z,13.21
2022-12-03T05:57:00.211Z,14.74
2022-12-03T05:58:02.967Z,14.89
2022-12-03T05:59:06.086Z,14.70
2022-12-03T06:00:14.341Z,14.41
2022-12-03T06:01:17.459Z,15.41
2022-12-03T06:02:19.693Z,15.48
2022-12-03T06:03:24.287Z,16.13
2022-12-03T06:04:26.497Z,14.24
2022-12-03T06:05:29.612Z,14.43
2022-12-03T06:06:31.836Z,14.61
2022-12-03T06:07:35.045Z,14.42
2022-12-03T06:08:39.182Z,14.70
2022-12-03T06:09:41.415Z,14.52
2022-12-03T06:10:44.570Z,15.40
2022-12-03T06:11:46.738Z,15.61
2022-12-03T06:12:49.898Z,14.59
2022-12-03T06:13:52.075Z,15.78
2022-12-03T06:14:55.863Z,16.61
2022-12-03T06:15:58.290Z,14.57
2022-12-03T06:17:01.480Z,14.17
2022-12-03T06:18:03.759Z,15.09
2022-12-03T06:19:08.204Z,13.87
2022-12-03T06:20:14.496Z,14.41
2022-12-03T06:21:17.616Z,14.24
2022-12-03T06:22:20.425Z,15.02
2022-12-03T06:23:23.504Z,15.57
2022-12-03T06:24:25.736Z,13.96
2022-12-03T06:25:28.909Z,14.99
2022-12-03T06:26:31.013Z,13.97
2022-12-03T06:27:34.115Z,13.68
2022-12-03T06:28:36.186Z,13.93
2022-12-03T06:29:39.594Z,15.38
2022-12-03T06:30:41.837Z,14.43
2022-12-03T06:31:44.950Z,13.96
2022-12-03T06:32:48.105Z,14.33
2022-12-03T06:33:50.266Z,14.26
2022-12-03T06:34:55.052Z,15.50
2022-12-03T06:35:57.480Z,14.24
2022-12-03T06:37:00.641Z,14.59
2022-12-03T06:38:02.892Z,15.65
2022-12-03T06:39:06.058Z,14.82
2022-12-03T06:40:09.372Z,15.16
2022-12-03T06:41:12.466Z,13.91
2022-12-03T06:42:14.591Z,13.81
2022-12-03T06:43:17.684Z,14.33
2022-12-03T06:44:20.029Z,15.65
2022-12-03T06:45:23.115Z,14.99
2022-12-03T06:46:25.416Z,14.91
2022-12-03T06:47:28.627Z,15.34
2022-12-03T06:48:30.718Z,13.57
2022-12-03T06:49:33.928Z,14.28
2022-12-03T06:50:37.436Z,14.26
2022-12-03T06:51:40.828Z,13.66
2022-12-03T06:52:43.014Z,13.34
2022-12-03T06:53:46.144Z,14.31
2022-12-03T06:54:48.290Z,14.67
2022-12-03T06:55:51.475Z,14.97
2022-12-03T06:56:54.615Z,15.04
2022-12-03T06:57:56.833Z,13.19
2022-12-03T06:58:59.959Z,14.88
2022-12-03T07:00:03.521Z,14.37
2022-12-03T07:01:05.940Z,14.93
2022-12-03T07:02:09.123Z,15.13
2022-12-03T07:03:11.370Z,14.79
2022-12-03T07:04:14.644Z,16.42
2022-12-03T07:05:17.453Z,15.04
2022-12-03T07:06:22.059Z,15.41
2022-12-03T07:07:24.325Z,15.43
2022-12-03T07:08:27.914Z,15.16
2022-12-03T07:09:30.009Z,15.00
2022-12-03T07:10:33.228Z,14.90
2022-12-03T07:11:40.380Z,14.66
2022-12-03T07:12:43.573Z,15.19
2022-12-03T07:13:45.648Z,14.09
2022-12-03T07:14:48.717Z,14.19
2022-12-03T07:15:50.844Z,13.63
2022-12-03T07:16:54.403Z,13.50
2022-12-03T07:17:56.491Z,15.10
2022-12-03T07:18:59.647Z,15.22
2022-12-03T07:20:04.571Z,15.11
2022-12-03T07:21:06.704Z,13.45
2022-12-03T07:22:11.188Z,14.47
2022-12-03T07:23:13.252Z,13.11
2022-12-03T07:24:16.333Z,15.10
2022-12-03T07:25:23.086Z,13.02
2022-12-03T07:26:27.286Z,14.64
2022-12-03T07:27:30.408Z,15.88
2022-12-03T07:28:32.535Z,15.57
2022-12-03T07:29:35.672Z,14.08
2022-12-03T07:30:37.771Z,15.67
2022-12-03T07:31:40.952Z,14.83
2022-12-03T07:32:43.137Z,13.73
2022-12-03T07:33:46.670Z,14.00
2022-12-03T07:34:48.825Z,14.51
2022-12-03T07:35:51.960Z,15.55
2022-12-03T07:36:55.100Z,16.24
2022-12-03T07:37:58.529Z,14.17
2022-12-03T07:39:01.673Z,15.86
2022-12-03T07:40:04.391Z,14.07
2022-12-03T07:41:07.884Z,14.84
2022-12-03T07:42:11.025Z,14.67
2022-12-03T07:43:13.247Z,15.54
2022-12-03T07:44:16.420Z,15.24
2022-12-03T07:45:18.574Z,14.83
2022-12-03T07:46:21.778Z,15.08
2022-12-03T07:47:23.959Z,14.84
2022-12-03T07:48:27.148Z,16.09
2022-12-03T07:49:29.331Z,15.19
2022-12-03T07:50:32.475Z,15.55
2022-12-03T07:51:35.649Z,14.47
2022-12-03T07:52:37.813Z,14.97
2022-12-03T07:53:42.287Z,15.96
2022-12-03T07:54:44.552Z,15.56
2022-12-03T07:55:47.726Z,15.86
2022-12-03T07:56:50.323Z,15.39
2022-12-03T07:57:53.619Z,14.77
2022-12-03T07:58:56.890Z,12.50
2022-12-03T07:59:58.984Z,13.64
2022-12-03T08:01:02.173Z,15.40
2022-12-03T08:02:04.513Z,16.08
2022-12-03T08:03:07.696Z,16.03
2022-12-03T08:04:11.494Z,17.61
2022-12-03T08:05:14.778Z,15.59
2022-12-03T08:06:17.889Z,14.79
2022-12-03T08:07:19.992Z,14.78
2022-12-03T08:08:23.034Z,15.67
2022-12-03T08:09:26.586Z,16.30
2022-12-03T08:10:29.843Z,17.12
2022-12-03T08:11:34.378Z,17.25
2022-12-03T08:12:42.625Z,16.51
2022-12-03T08:13:45.712Z,18.49
2022-12-03T08:14:47.933Z,17.30
2022-12-03T08:15:51.018Z,16.18
2022-12-03T08:16:53.205Z,16.82
2022-12-03T08:17:59.691Z,15.47
2022-12-03T08:19:06.848Z,16.27
2022-12-03T08:20:15.291Z,18.51
2022-12-03T08:21:20.481Z,15.02
2022-12-03T08:22:22.641Z,15.92
2022-12-03T08:23:27.447Z,15.81
2022-12-03T08:24:30.969Z,18.08
2022-12-03T08:25:34.660Z,18.53
2022-12-03T08:26:37.782Z,16.79
2022-12-03T08:27:40.096Z,18.09
2022-12-03T08:28:43.297Z,17.09
2022-12-03T08:29:46.334Z,15.62
2022-12-03T08:31:02.064Z,17.16
2022-12-03T08:32:11.453Z,19.23
2022-12-03T08:33:21.817Z,18.41
2022-12-03T08:34:29.595Z,19.38
2022-12-03T08:35:32.433Z,19.59
2022-12-03T08:36:36.482Z,20.31
2022-12-03T08:37:38.667Z,19.98
2022-12-03T08:38:41.864Z,19.12
2022-12-03T08:39:49.371Z,19.12
2022-12-03T08:40:52.930Z,18.80
2022-12-03T08:42:18.381Z,20.18
2022-12-03T08:43:24.226Z,19.29
2022-12-03T08:44:28.535Z,19.13
2022-12-03T08:45:42.054Z,18.46
2022-12-03T08:46:45.968Z,19.25
2022-12-03T08:47:48.072Z,17.78
2022-12-03T08:48:51.323Z,18.87
2022-12-03T08:49:58.059Z,18.41
2022-12-03T08:51:04.923Z,21.23
2022-12-03T08:52:13.632Z,20.88
2022-12-03T08:53:30.483Z,20.44
2022-12-03T08:54:33.617Z,18.02
2022-12-03T08:55:39.820Z,20.35
2022-12-03T08:56:43.886Z,25.42
2022-12-03T08:57:46.095Z,22.70
2022-12-03T08:58:52.645Z,17.68
2022-12-03T08:59:59.504Z,21.02
2022-12-03T09:01:28.344Z,20.49
2022-12-03T09:02:34.778Z,16.84
2022-12-03T09:03:38.595Z,20.15
2022-12-03T09:04:47.334Z,18.52
2022-12-03T09:05:49.469Z,19.14
2022-12-03T09:06:52.791Z,18.87
2022-12-03T09:07:56.107Z,17.46
2022-12-03T09:09:01.205Z,18.76
2022-12-03T09:10:09.685Z,16.64
2022-12-03T09:11:13.534Z,16.04
2022-12-03T09:12:16.704Z,17.93
2022-12-03T09:13:18.855Z,16.11
2022-12-03T09:14:23.579Z,18.64
2022-12-03T09:15:25.786Z,19.39
2022-12-03T09:16:29.409Z,19.13
2022-12-03T09:17:31.633Z,17.79
2022-12-03T09:18:35.238Z,19.25
2022-12-03T09:19:44.254Z,17.77
2022-12-03T09:20:48.117Z,19.79
2022-12-03T09:21:51.337Z,21.26
2022-12-03T09:22:53.465Z,19.99
2022-12-03T09:23:56.608Z,20.83
2022-12-03T09:24:59.766Z,19.78
2022-12-03T09:26:01.956Z,20.53
2022-12-03T09:27:06.544Z,20.80
2022-12-03T09:28:10.260Z,17.66
2022-12-03T09:29:13.524Z,19.41
2022-12-03T09:30:16.333Z,20.03
2022-12-03T09:31:19.796Z,18.14
2022-12-03T09:32:22.203Z,17.27
2022-12-03T09:33:25.544Z,18.93
2022-12-03T09:34:27.637Z,17.84
2022-12-03T09:35:30.766Z,19.70
2022-12-03T09:36:32.942Z,18.11
2022-12-03T09:37:36.108Z,17.99
2022-12-03T09:38:41.848Z,17.63
2022-12-03T09:39:47.597Z,17.10
2022-12-03T09:40:49.829Z,16.96
2022-12-03T09:41:53.103Z,16.66
2022-12-03T09:42:58.654Z,15.34
2022-12-03T09:44:04.751Z,15.75
2022-12-03T09:45:12.201Z,17.58
2022-12-03T09:46:15.536Z,19.00
2022-12-03T09:47:19.615Z,19.66
2022-12-03T09:48:22.760Z,18.20
2022-12-03T09:49:25.973Z,18.91
2022-12-03T09:50:28.559Z,17.75
2022-12-03T09:51:34.869Z,17.08
2022-12-03T09:52:38.063Z,17.14
2022-12-03T09:53:41.873Z,13.08
2022-12-03T09:54:47.279Z,12.88
2022-12-03T09:55:51.522Z,16.46
2022-12-03T09:56:56.350Z,16.83
2022-12-03T09:58:00.741Z,15.58
2022-12-03T09:59:07.814Z,13.47
2022-12-03T10:00:18.687Z,16.72
2022-12-03T10:01:21.171Z,15.76
2022-12-03T10:02:30.465Z,18.86
2022-12-03T10:03:33.754Z,17.17
2022-12-03T10:04:36.141Z,17.09
2022-12-03T10:05:45.100Z,17.62
2022-12-03T10:06:51.639Z,16.15
2022-12-03T10:07:58.665Z,16.99
2022-12-03T10:09:02.260Z,18.80
2022-12-03T10:10:08.436Z,18.76
2022-12-03T10:11:11.600Z,18.36
2022-12-03T10:12:16.238Z,18.85
2022-12-03T10:13:26.018Z,17.48
2022-12-03T10:14:30.070Z,17.80
2022-12-03T10:15:32.797Z,17.37
2022-12-03T10:16:40.291Z,17.51
2022-12-03T10:17:43.095Z,15.26
2022-12-03T10:18:51.751Z,14.76
2022-12-03T10:19:59.585Z,16.97
2022-12-03T10:21:02.127Z,16.68
2022-12-03T10:22:05.360Z,17.13
2022-12-03T10:23:07.718Z,18.68
2022-12-03T10:24:26.540Z,18.01
2022-12-03T10:25:28.775Z,17.39
2022-12-03T10:26:41.689Z,18.59
2022-12-03T10:28:00.926Z,18.78
2022-12-03T10:29:15.084Z,19.63
2022-12-03T10:30:23.544Z,19.08
2022-12-03T10:31:37.391Z,17.74
2022-12-03T10:32:42.602Z,16.80
2022-12-03T10:33:47.389Z,16.40
2022-12-03T10:34:49.536Z,17.05
2022-12-03T10:35:52.699Z,16.76
2022-12-03T10:37:18.177Z,17.39
2022-12-03T10:38:23.193Z,16.88
2022-12-03T10:39:26.382Z,16.88
2022-12-03T10:40:31.647Z,17.51
2022-12-03T10:41:33.959Z,17.40
2022-12-03T10:42:40.115Z,16.67
2022-12-03T10:43:42.600Z,15.72
2022-12-03T10:44:47.499Z,17.53
2022-12-03T10:45:51.403Z,16.45
2022-12-03T10:47:08.028Z,15.40
2022-12-03T10:48:17.310Z,17.25
2022-12-03T10:49:20.561Z,16.78
2022-12-03T10:50:23.926Z,16.41
2022-12-03T10:51:27.201Z,16.66
2022-12-03T10:52:30.145Z,15.37
2022-12-03T10:53:35.788Z,16.45
2022-12-03T10:54:38.941Z,15.53
2022-12-03T10:55:45.040Z,14.58
2022-12-03T10:56:49.299Z,15.28
2022-12-03T10:57:52.952Z,16.18
2022-12-03T10:58:57.013Z,16.58
2022-12-03T11:00:00.729Z,14.89
2022-12-03T11:01:10.323Z,14.02
2022-12-03T11:02:21.985Z,14.70
2022-12-03T11:03:25.917Z,15.92
2022-12-03T11:04:33.850Z,15.86
2022-12-03T11:05:36.068Z,14.50
2022-12-03T11:06:39.422Z,15.88
2022-12-03T11:07:44.810Z,15.76
2022-12-03T11:08:56.780Z,14.87
2022-12-03T11:10:02.666Z,14.63
2022-12-03T11:11:09.407Z,15.72
2022-12-03T11:12:21.128Z,15.36
2022-12-03T11:13:51.949Z,14.68
2022-12-03T11:15:08.447Z,14.94
2022-12-03T11:16:11.060Z,14.90
2022-12-03T11:17:14.323Z,14.78
2022-12-03T11:18:50.586Z,14.72
2022-12-03T11:19:53.809Z,15.14
2022-12-03T11:21:03.037Z,16.46
2022-12-03T11:22:25.005Z,14.72
2022-12-03T11:24:11.092Z,15.24
2022-12-03T11:25:55.988Z,15.73
2022-12-03T11:27:29.262Z,13.69
2022-12-03T11:28:53.381Z,13.18
2022-12-03T11:30:01.860Z,15.27
2022-12-03T11:31:11.705Z,15.83
2022-12-03T11:33:04.575Z,14.67
2022-12-03T11:34:49.759Z,15.08
2022-12-03T11:36:15.347Z,16.58
2022-12-03T11:37:29.159Z,16.17
2022-12-03T11:38:54.164Z,16.09
2022-12-03T11:40:34.759Z,15.45
2022-12-03T11:41:41.236Z,15.28
2022-12-03T11:42:46.008Z,14.97
2022-12-03T11:44:34.132Z,16.26
2022-12-03T11:45:39.318Z,17.12
2022-12-03T11:46:46.077Z,16.98
2022-12-03T11:48:04.118Z,16.01
2022-12-03T11:49:34.777Z,17.12
2022-12-03T11:50:40.605Z,15.96
2022-12-03T11:51:45.761Z,15.71
2022-12-03T11:52:54.456Z,16.59
2022-12-03T11:53:59.478Z,16.89
2022-12-03T11:55:16.931Z,15.62
2022-12-03T11:56:24.813Z,14.67
2022-12-03T11:57:34.934Z,16.98
2022-12-03T11:58:42.915Z,18.84
2022-12-03T12:00:06.804Z,16.00
2022-12-03T12:01:10.483Z,16.41
2022-12-03T12:02:21.186Z,16.66
2022-12-03T12:03:32.855Z,18.38
2022-12-03T12:04:38.018Z,17.22
2022-12-03T12:05:41.457Z,16.01
2022-12-03T12:06:51.757Z,16.12
2022-12-03T12:07:58.833Z,16.75
2022-12-03T12:09:03.648Z,18.05
2022-12-03T12:10:07.779Z,17.38
2022-12-03T12:11:22.156Z,15.75
2022-12-03T12:12:32.090Z,16.82
2022-12-03T12:13:56.590Z,16.46
2022-12-03T12:14:59.873Z,17.24
2022-12-03T12:16:05.211Z,17.88
2022-12-03T12:17:34.380Z,16.70
2022-12-03T12:18:39.881Z,16.06
2022-12-03T12:19:46.424Z,17.88
2022-12-03T12:20:50.717Z,20.33
2022-12-03T12:21:54.098Z,19.64
2022-12-03T12:23:17.351Z,18.43
2022-12-03T12:24:46.823Z,15.99
2022-12-03T12:25:54.234Z,15.47
2022-12-03T12:26:57.886Z,15.03
2022-12-03T12:28:01.073Z,14.13
2022-12-03T12:29:03.401Z,16.31
2022-12-03T12:30:13.833Z,16.62
2022-12-03T12:31:17.080Z,15.29
2022-12-03T12:32:25.175Z,17.27
2022-12-03T12:33:29.829Z,16.88
2022-12-03T12:34:32.283Z,16.28
2022-12-03T12:35:36.763Z,16.00
2022-12-03T12:36:39.420Z,15.68
2022-12-03T12:37:56.652Z,16.86
2022-12-03T12:39:02.018Z,18.48
2022-12-03T12:40:16.693Z,19.00
2022-12-03T12:41:20.050Z,17.92
2022-12-03T12:42:30.398Z,18.11
2022-12-03T12:43:34.935Z,18.69
2022-12-03T12:44:37.077Z,18.44
2022-12-03T12:45:43.158Z,18.96
2022-12-03T12:46:48.720Z,18.44
2022-12-03T12:48:04.225Z,18.87
2022-12-03T12:49:12.338Z,17.06
2022-12-03T12:50:16.476Z,16.35
2022-12-03T12:51:20.179Z,18.58
2022-12-03T12:52:23.444Z,17.27
2022-12-03T12:53:28.287Z,17.93
2022-12-03T12:54:30.426Z,17.86
2022-12-03T12:55:33.498Z,16.39
2022-12-03T12:56:37.611Z,18.29
2022-12-03T12:57:39.857Z,19.32
2022-12-03T12:58:43.599Z,18.17
2022-12-03T12:59:45.961Z,17.93
2022-12-03T13:00:53.118Z,18.98
2022-12-03T13:01:56.985Z,18.84
2022-12-03T13:03:03.225Z,18.94
2022-12-03T13:04:14.841Z,18.95
2022-12-03T13:05:18.378Z,18.37
2022-12-03T13:06:26.944Z,19.43
2022-12-03T13:07:30.540Z,18.72
2022-12-03T13:08:40.592Z,18.33
2022-12-03T13:09:44.700Z,20.47
2022-12-03T13:10:51.526Z,19.53
2022-12-03T13:11:57.299Z,19.31
2022-12-03T13:13:02.539Z,19.50
2022-12-03T13:14:16.008Z,19.62
2022-12-03T13:15:36.619Z,17.71
2022-12-03T13:16:40.700Z,18.82
2022-12-03T13:17:43.100Z,17.52
2022-12-03T13:18:49.011Z,17.72
2022-12-03T13:20:01.949Z,18.76
2022-12-03T13:21:22.054Z,18.78
2022-12-03T13:22:26.086Z,18.47
2022-12-03T13:23:34.440Z,23.04
2022-12-03T13:24:39.767Z,18.49
2022-12-03T13:26:02.238Z,17.21
2022-12-03T13:27:22.940Z,16.82
2022-12-03T13:28:25.412Z,18.49
2022-12-03T13:29:29.535Z,18.95
2022-12-03T13:30:31.797Z,17.78
2022-12-03T13:31:43.497Z,18.20
2022-12-03T13:32:46.513Z,16.59
2022-12-03T13:33:49.624Z,17.76
2022-12-03T13:34:55.388Z,17.33
2022-12-03T13:35:57.506Z,15.73
2022-12-03T13:37:02.731Z,18.12
2022-12-03T13:38:15.432Z,18.53
2022-12-03T13:39:22.363Z,16.78
2022-12-03T13:40:27.787Z,16.19
2022-12-03T13:41:48.620Z,16.79
2022-12-03T13:42:53.093Z,15.97
2022-12-03T13:43:55.175Z,18.10
2022-12-03T13:44:58.353Z,18.48
2022-12-03T13:46:01.253Z,17.64
2022-12-03T13:47:15.198Z,17.57
2022-12-03T13:48:22.995Z,17.29
2022-12-03T13:49:26.153Z,18.41
2022-12-03T13:50:35.651Z,18.23
2022-12-03T13:51:38.857Z,19.00
2022-12-03T13:52:41.219Z,18.20
2022-12-03T13:53:44.424Z,18.99
2022-12-03T13:54:49.801Z,18.57
2022-12-03T13:55:56.562Z,17.88
2022-12-03T13:57:00.239Z,20.04
2022-12-03T13:58:02.330Z,20.07
2022-12-03T13:59:05.696Z,19.11
2022-12-03T14:00:09.183Z,17.96
2022-12-03T14:01:12.394Z,17.92
2022-12-03T14:02:15.754Z,18.29
2022-12-03T14:03:18.001Z,19.60
2022-12-03T14:04:21.080Z,19.92
2022-12-03T14:05:23.228Z,20.84
2022-12-03T14:06:27.767Z,19.49
2022-12-03T14:07:30.983Z,18.73
2022-12-03T14:08:33.260Z,17.26
2022-12-03T14:09:36.334Z,16.21
2022-12-03T14:10:38.460Z,17.65
2022-12-03T14:11:59.081Z,19.21
2022-12-03T14:13:02.169Z,17.34